Time;durP1;ratioP1;P1;durP2;ratioP2;P2;SDS_P1;SDS_P2;PMS_P1;PMS_P2;Temp;Humidity;BMP_temperature;BMP_pressure;BME280_temperature;BME280_humidity;BME280_pressure;Samples;Min_cycle;Max_cycle;Signal;HPM_P1;HPM_P2
2023/08/13 00:02:03;;;;;;;9.82;2.10;;;;;;;-146.27;85.50;81689.19;5022481;28;20026;-69
2023/08/13 00:04:28;;;;;;;16.08;2.60;;;;;;;-146.27;85.45;81701.25;5022243;28;20061;-69
2023/08/13 00:06:53;;;;;;;15.77;2.40;;;;;;;-146.27;85.07;81723.34;5024514;28;20618;-67
2023/08/13 00:09:19;;;;;;;11.15;2.22;;;;;;;-146.27;85.11;81745.44;5019833;28;20086;-66
2023/08/13 00:11:46;;;;;;;14.55;2.15;;;;;;;-146.27;85.50;81741.41;5020088;28;20053;-68
2023/08/13 00:14:12;;;;;;;14.73;2.78;;;;;;;-146.27;85.99;81817.75;5023411;28;20032;-67
2023/08/13 00:16:37;;;;;;;15.02;2.25;;;;;;;-146.27;86.04;81733.38;5021397;28;20428;-68
2023/08/13 00:19:03;;;;;;;12.70;2.08;;;;;;;-146.27;85.32;81731.38;5022309;28;20029;-68
2023/08/13 00:21:28;;;;;;;15.32;2.50;;;;;;;-146.27;85.32;81733.38;5024050;28;20112;-67
2023/08/13 00:23:53;;;;;;;10.20;2.10;;;;;;;-146.27;85.21;81721.34;5019299;28;20044;-69
2023/08/13 00:26:19;;;;;;;12.65;3.13;;;;;;;-146.27;85.85;81765.53;5027173;28;20459;-69
2023/08/13 00:28:44;;;;;;;7.15;2.03;;;;;;;-146.27;85.69;81763.50;5023803;28;20037;-68
2023/08/13 00:31:10;;;;;;;9.73;2.20;;;;;;;-146.27;85.71;81741.41;5020766;28;20021;-68
2023/08/13 00:33:35;;;;;;;8.48;2.60;;;;;;;-146.27;85.68;81773.56;5023626;28;20048;-69
2023/08/13 00:36:00;;;;;;;16.85;3.63;;;;;;;-146.27;86.11;81757.50;5020114;28;20026;-68
2023/08/13 00:38:26;;;;;;;12.13;2.55;;;;;;;-146.27;85.77;81765.53;5024357;28;20079;-68
2023/08/13 00:40:51;;;;;;;19.42;3.35;;;;;;;-146.27;85.70;81737.41;5020561;28;20025;-67
2023/08/13 00:43:16;;;;;;;11.43;2.08;;;;;;;-146.27;85.79;81743.44;5018425;28;20488;-67
2023/08/13 00:45:43;;;;;;;12.13;2.38;;;;;;;-146.27;86.26;81795.66;5020042;28;20033;-67
2023/08/13 00:48:09;;;;;;;6.43;1.73;;;;;;;-146.27;85.76;81757.50;5017802;28;20034;-68
2023/08/13 00:50:35;;;;;;;10.98;2.03;;;;;;;-146.27;86.54;81769.53;5015941;28;20448;-71
2023/08/13 00:53:01;;;;;;;11.93;1.95;;;;;;;-146.27;86.46;81765.53;5026324;28;20033;-69
2023/08/13 00:55:27;;;;;;;13.70;2.42;;;;;;;-146.27;86.67;81799.66;5022358;28;20040;-69
2023/08/13 00:57:53;;;;;;;14.07;2.20;;;;;;;-146.27;86.45;81757.50;5015961;28;20021;-69
2023/08/13 01:00:18;;;;;;;20.50;2.53;;;;;;;-146.27;86.14;81765.53;5019456;28;20491;-68
2023/08/13 01:02:44;;;;;;;14.68;2.45;;;;;;;-146.27;86.48;81785.59;5020449;28;20093;-68
2023/08/13 01:05:09;;;;;;;19.80;3.33;;;;;;;-146.27;86.43;81785.59;5013552;28;22216;-69
2023/08/13 01:07:58;;;;;;;17.98;2.63;;;;;;;-146.27;87.00;81793.66;5019980;28;20940;-68
2023/08/13 01:10:33;;;;;;;13.18;2.63;;;;;;;-146.27;86.99;81845.88;5017898;28;20524;-69
2023/08/13 01:13:04;;;;;;;11.50;2.63;;;;;;;-146.27;87.32;81789.63;5018245;28;20029;-69
2023/08/13 01:15:42;;;;;;;9.70;2.35;;;;;;;-146.27;86.77;81751.47;5019625;28;20500;-69
2023/08/13 01:18:08;;;;;;;14.63;2.28;;;;;;;-146.27;87.66;81817.75;5018335;28;20025;-68
2023/08/13 01:20:36;;;;;;;13.65;3.03;;;;;;;-146.27;87.96;81821.75;5018917;28;20033;-70
2023/08/13 01:23:02;;;;;;;14.52;2.55;;;;;;;-146.27;87.62;81813.72;5024591;28;20037;-69
2023/08/13 01:25:28;;;;;;;15.90;3.03;;;;;;;-146.27;87.32;81805.69;5020165;28;20052;-69
2023/08/13 01:28:15;;;;;;;11.43;2.33;;;;;;;-146.27;87.50;81795.66;5018056;28;20034;-68
2023/08/13 01:31:04;;;;;;;7.45;2.47;;;;;;;-146.27;87.89;81821.75;5020262;28;20040;-70
2023/08/13 01:33:34;;;;;;;10.23;2.72;;;;;;;-146.27;87.55;81787.63;5023617;28;20044;-70
2023/08/13 01:36:02;;;;;;;12.63;2.58;;;;;;;-146.27;87.24;81803.69;5020356;28;20052;-69
2023/08/13 01:38:28;;;;;;;12.50;2.75;;;;;;;-146.27;87.95;81833.81;5023004;28;20167;-69
2023/08/13 01:40:56;;;;;;;16.48;3.30;;;;;;;-146.27;88.47;81882.00;5020593;28;20033;-68
2023/08/13 01:43:21;;;;;;;11.88;2.72;;;;;;;-146.27;88.26;81845.88;5022545;28;20116;-69
2023/08/13 01:45:46;;;;;;;16.33;3.33;;;;;;;-146.27;88.75;81898.09;5020704;28;20057;-69
2023/08/13 01:48:12;;;;;;;16.52;3.45;;;;;;;-146.27;88.56;81847.88;5018393;28;20048;-70
2023/08/13 01:50:38;;;;;;;11.35;2.83;;;;;;;-146.27;88.96;81884.03;5016145;28;20048;-70
2023/08/13 01:53:04;;;;;;;17.20;4.43;;;;;;;-146.27;89.63;81944.28;5020122;28;20025;-69
2023/08/13 01:55:29;;;;;;;14.93;3.55;;;;;;;-146.27;89.86;81918.16;5022337;28;20032;-70
2023/08/13 01:57:55;;;;;;;13.07;2.70;;;;;;;-146.27;89.51;81861.94;5024748;28;20056;-69
2023/08/13 02:00:20;;;;;;;15.07;3.10;;;;;;;-146.27;89.81;81912.16;5015635;28;20056;-69
2023/08/13 02:02:46;;;;;;;16.45;3.78;;;;;;;-146.27;90.27;81942.28;5020563;28;20034;-69
2023/08/13 02:05:11;;;;;;;16.77;4.03;;;;;;;-146.27;90.03;81873.97;5020726;28;20087;-69
2023/08/13 02:07:37;;;;;;;12.15;2.83;;;;;;;-146.27;90.17;81896.06;5017287;28;20392;-69
2023/08/13 02:10:03;;;;;;;16.33;3.65;;;;;;;-146.27;89.86;81865.94;5019912;28;20036;-70
2023/08/13 02:12:28;;;;;;;12.60;3.00;;;;;;;-146.27;90.09;81873.97;5016365;28;20955;-69
2023/08/13 02:14:54;;;;;;;15.05;2.63;;;;;;;-146.27;90.52;81922.19;5016672;28;20123;-69
2023/08/13 02:17:19;;;;;;;12.60;3.53;;;;;;;-146.27;91.50;81958.34;5021520;28;20159;-69
2023/08/13 02:19:45;;;;;;;11.40;2.75;;;;;;;-146.27;91.37;81928.22;5015374;28;20742;-70
2023/08/13 02:22:10;;;;;;;10.10;2.40;;;;;;;-146.27;90.99;81898.09;5017414;28;20029;-69
2023/08/13 02:24:36;;;;;;;14.15;2.40;;;;;;;-146.27;90.87;81918.16;5020611;28;20044;-69
2023/08/13 02:27:01;;;;;;;15.48;3.25;;;;;;;-146.27;91.44;81878.00;5017468;28;20442;-68
2023/08/13 02:29:27;;;;;;;15.10;2.72;;;;;;;-146.27;91.53;81908.13;5019582;28;20039;-68
2023/08/13 02:31:52;;;;;;;11.48;2.83;;;;;;;-146.27;91.53;81886.03;5019972;28;20028;-68
2023/08/13 02:34:17;;;;;;;11.27;2.78;;;;;;;-146.27;91.00;81849.88;5015852;28;20033;-69
2023/08/13 02:36:43;;;;;;;10.77;2.30;;;;;;;-146.27;91.51;81886.03;5019902;28;20104;-68
2023/08/13 02:39:08;;;;;;;17.70;2.83;;;;;;;-146.27;91.87;81873.97;5023597;28;20135;-70
2023/08/13 02:41:33;;;;;;;15.75;4.05;;;;;;;-146.27;91.50;81900.09;5016003;28;20487;-68
2023/08/13 02:43:59;;;;;;;15.07;2.50;;;;;;;-146.27;91.34;81849.88;5018453;28;20037;-68
2023/08/13 02:46:26;;;;;;;12.15;2.55;;;;;;;-146.27;91.31;81863.94;5019638;28;20087;-67
2023/08/13 02:48:55;;;;;;;22.92;2.72;;;;;;;-146.27;91.43;81876.00;5018667;28;20035;-68
2023/08/13 02:51:22;;;;;;;13.65;2.40;;;;;;;-146.27;91.53;81876.00;5020784;28;20037;-68
2023/08/13 02:53:47;;;;;;;13.13;2.80;;;;;;;-146.27;91.29;81898.09;5024416;28;20026;-69
2023/08/13 02:56:13;;;;;;;12.63;2.55;;;;;;;-146.27;91.13;81849.88;5020357;28;20037;-68
2023/08/13 02:58:38;;;;;;;14.50;1.95;;;;;;;-146.27;90.94;81859.94;5020298;28;20029;-67
2023/08/13 03:01:04;;;;;;;15.95;2.42;;;;;;;-146.27;91.46;81869.97;5019354;28;20037;-68
2023/08/13 03:03:30;;;;;;;14.13;2.60;;;;;;;-146.27;91.01;81863.94;5017687;28;20060;-70
2023/08/13 03:05:56;;;;;;;9.65;2.17;;;;;;;-146.27;90.58;81819.75;5015852;28;20077;-69
2023/08/13 03:08:22;;;;;;;11.13;2.50;;;;;;;-146.27;90.69;81884.03;5021011;28;20492;-69
2023/08/13 03:10:47;;;;;;;12.45;2.88;;;;;;;-146.27;91.07;81882.00;5016789;28;20043;-67
2023/08/13 03:13:12;;;;;;;8.52;2.25;;;;;;;-146.27;90.75;81869.97;5019580;28;20064;-69
2023/08/13 03:15:38;;;;;;;18.58;2.47;;;;;;;-146.27;90.77;81873.97;5019778;28;20412;-69
2023/08/13 03:18:04;;;;;;;12.95;2.85;;;;;;;-146.27;90.63;81873.97;5018844;28;20029;-68
2023/08/13 03:20:29;;;;;;;13.10;2.20;;;;;;;-146.27;90.90;81892.06;5017271;28;20087;-69
2023/08/13 03:22:55;;;;;;;15.07;2.22;;;;;;;-146.27;90.73;81853.91;5020511;28;20223;-67
2023/08/13 03:25:20;;;;;;;10.90;2.25;;;;;;;-146.27;91.08;81908.13;5023117;28;20040;-68
2023/08/13 03:27:48;;;;;;;10.32;3.05;;;;;;;-146.27;91.10;81867.97;5020504;28;20033;-68
2023/08/13 03:30:13;;;;;;;10.07;2.15;;;;;;;-146.27;90.74;81861.94;5019175;28;20067;-68
2023/08/13 03:32:39;;;;;;;10.38;2.33;;;;;;;-146.27;91.29;81928.22;5017848;28;20116;-69
2023/08/13 03:35:04;;;;;;;11.85;2.33;;;;;;;-146.27;91.21;81886.03;5019800;28;20039;-68
2023/08/13 03:37:30;;;;;;;10.80;2.60;;;;;;;-146.27;91.27;81886.03;5018860;28;20512;-69
2023/08/13 03:39:55;;;;;;;11.85;2.67;;;;;;;-146.27;90.86;81882.00;5018817;28;20036;-70
2023/08/13 03:42:20;;;;;;;17.60;2.63;;;;;;;-146.27;91.54;81920.19;5021355;28;20060;-68
2023/08/13 03:44:46;;;;;;;15.52;2.58;;;;;;;-146.27;92.49;81926.22;5018159;28;20056;-68
2023/08/13 03:47:11;;;;;;;13.00;2.30;;;;;;;-146.27;92.26;81946.28;5018163;28;20034;-69
2023/08/13 03:49:37;;;;;;;9.38;2.15;;;;;;;-146.27;91.81;81924.19;5017593;28;20145;-70
2023/08/13 03:52:02;;;;;;;16.77;2.92;;;;;;;-146.27;91.36;81936.25;5019445;28;20432;-69
2023/08/13 03:54:28;;;;;;;9.20;2.20;;;;;;;-146.27;91.44;81930.22;5018425;28;20033;-68
2023/08/13 03:56:53;;;;;;;10.93;2.13;;;;;;;-146.27;91.51;81930.22;5022161;28;20029;-69
2023/08/13 03:59:19;;;;;;;14.52;2.30;;;;;;;-146.27;91.79;81962.34;5015622;28;20112;-68
2023/08/13 04:01:44;;;;;;;15.43;2.97;;;;;;;-146.27;91.94;81962.34;5019961;28;21088;-67
2023/08/13 04:04:10;;;;;;;13.27;2.50;;;;;;;-146.27;92.22;81992.50;5019527;28;20057;-69
2023/08/13 04:06:35;;;;;;;13.70;2.25;;;;;;;-146.27;92.87;82014.59;5016986;28;20061;-69
2023/08/13 04:09:01;;;;;;;10.07;2.35;;;;;;;-146.27;92.64;81974.41;5022409;28;20025;-69
2023/08/13 04:11:27;;;;;;;14.95;2.08;;;;;;;-146.27;92.62;81984.47;5018526;28;20079;-68
2023/08/13 04:13:53;;;;;;;14.98;2.50;;;;;;;-146.27;92.79;81984.47;5013997;28;20083;-69
2023/08/13 04:16:18;;;;;;;15.80;2.40;;;;;;;-146.27;92.72;81982.44;5020199;28;20491;-70
2023/08/13 04:18:44;;;;;;;22.42;3.03;;;;;;;-146.27;92.49;81986.47;5018927;28;20022;-68
2023/08/13 04:21:09;;;;;;;13.57;2.30;;;;;;;-146.27;93.26;81998.50;5016558;28;20642;-68
2023/08/13 04:23:35;;;;;;;14.07;2.47;;;;;;;-146.27;93.39;81974.41;5023443;28;20072;-68
2023/08/13 04:26:00;;;;;;;11.95;2.30;;;;;;;-146.27;93.48;82008.56;5017865;28;20028;-69
2023/08/13 04:28:26;;;;;;;18.52;3.42;;;;;;;-146.27;93.55;82008.56;5015438;28;20095;-69
2023/08/13 04:30:51;;;;;;;12.55;2.88;;;;;;;-146.27;93.62;81982.44;5017831;28;20034;-68
2023/08/13 04:33:17;;;;;;;12.63;2.88;;;;;;;-146.27;94.23;82014.59;5018853;28;20110;-67
2023/08/13 04:35:42;;;;;;;10.40;2.72;;;;;;;-146.27;94.18;82020.59;5015543;28;20469;-68
2023/08/13 04:38:07;;;;;;;14.45;4.32;;;;;;;-146.27;94.59;82046.72;5018608;28;20087;-69
2023/08/13 04:40:33;;;;;;;13.48;2.35;;;;;;;-146.27;94.94;82034.66;5016379;28;20029;-68
2023/08/13 04:42:58;;;;;;;7.88;2.35;;;;;;;-146.27;95.26;82014.59;5015066;28;20037;-69
2023/08/13 04:45:23;;;;;;;10.95;2.30;;;;;;;-146.27;95.01;82022.63;5022384;28;20068;-68
2023/08/13 04:47:49;;;;;;;15.00;2.20;;;;;;;-146.27;94.62;82006.53;5021362;28;20033;-68
2023/08/13 04:50:14;;;;;;;16.17;3.38;;;;;;;-146.27;94.67;82018.59;5020313;28;20064;-68
2023/08/13 04:52:40;;;;;;;12.88;2.38;;;;;;;-146.27;94.98;82018.59;5024059;28;20029;-68
2023/08/13 04:55:05;;;;;;;7.45;2.17;;;;;;;-146.27;95.31;82060.78;5021589;28;20087;-67
2023/08/13 04:57:31;;;;;;;20.55;2.83;;;;;;;-146.27;95.05;82024.63;5019191;28;20040;-69
2023/08/13 04:59:57;;;;;;;11.98;2.53;;;;;;;-146.27;94.81;82028.66;5020180;28;20029;-69
2023/08/13 05:02:23;;;;;;;11.65;2.75;;;;;;;-146.27;94.78;82042.69;5019319;28;20091;-69
2023/08/13 05:04:48;;;;;;;14.27;2.80;;;;;;;-146.27;95.05;82036.69;5020226;28;20485;-68
2023/08/13 05:07:14;;;;;;;14.75;2.22;;;;;;;-146.27;95.00;82006.53;5018375;28;20065;-68
2023/08/13 05:09:39;;;;;;;11.18;2.38;;;;;;;-146.27;94.98;82034.66;5023000;28;20099;-69
2023/08/13 05:12:05;;;;;;;11.93;2.50;;;;;;;-146.27;94.80;82050.75;5028124;28;20122;-68
2023/08/13 05:14:30;;;;;;;18.30;2.10;;;;;;;-146.27;94.86;82034.66;5028204;28;20087;-67
2023/08/13 05:16:56;;;;;;;15.02;2.65;;;;;;;-146.27;95.03;82062.78;5031009;28;20079;-69
2023/08/13 05:19:21;;;;;;;10.65;2.15;;;;;;;-146.27;94.73;82038.69;5022871;28;20063;-67
2023/08/13 05:21:46;;;;;;;13.73;2.80;;;;;;;-146.27;94.40;82000.53;5031549;28;20040;-69
2023/08/13 05:24:12;;;;;;;17.98;2.72;;;;;;;-146.27;94.40;81998.50;5024756;28;20037;-69
2023/08/13 05:26:37;;;;;;;14.15;2.53;;;;;;;-146.27;94.16;81986.47;5030266;28;20109;-69
2023/08/13 05:29:03;;;;;;;14.75;2.50;;;;;;;-146.27;94.48;82012.56;5028752;28;20139;-69
2023/08/13 05:31:29;;;;;;;13.30;2.70;;;;;;;-146.27;94.35;81898.09;5027449;28;20022;-68
2023/08/13 05:33:57;;;;;;;12.27;2.28;;;;;;;-146.27;94.52;82006.53;5028253;28;20040;-68
2023/08/13 05:36:23;;;;;;;15.00;2.88;;;;;;;-146.27;94.74;82014.59;5029767;28;20416;-68
2023/08/13 05:38:48;;;;;;;12.30;2.35;;;;;;;-146.27;94.59;81998.50;5030701;28;20028;-67
2023/08/13 05:41:14;;;;;;;16.77;2.40;;;;;;;-146.27;94.41;81998.50;5031177;28;20056;-69
2023/08/13 05:43:39;;;;;;;8.63;2.58;;;;;;;-146.27;94.32;81976.41;5025756;28;20104;-69
2023/08/13 05:46:04;;;;;;;14.40;2.85;;;;;;;-146.27;93.73;81920.19;5029903;28;20112;-68
2023/08/13 05:48:30;;;;;;;12.48;2.20;;;;;;;-146.27;92.79;81934.25;5027881;28;20147;-68
2023/08/13 05:50:55;;;;;;;10.25;2.22;;;;;;;-146.27;92.76;81878.00;5025271;28;20029;-71
2023/08/13 05:53:20;;;;;;;16.67;2.75;;;;;;;-146.27;92.47;81894.06;5029082;28;20029;-71
2023/08/13 05:55:46;;;;;;;13.20;2.20;;;;;;;-146.27;92.67;81886.03;5021289;28;20481;-71
2023/08/13 05:58:11;;;;;;;12.05;2.30;;;;;;;-146.27;92.45;81829.78;5019893;28;20072;-67
2023/08/13 06:00:37;;;;;;;8.45;2.38;;;;;;;-146.27;92.25;81853.91;5029323;28;20037;-72
2023/08/13 06:03:03;;;;;;;15.93;2.65;;;;;;;-146.27;92.34;81878.00;5028413;28;20021;-71
2023/08/13 06:05:28;;;;;;;14.27;3.25;;;;;;;-146.27;92.07;81825.78;5032044;28;20045;-73
2023/08/13 06:07:53;;;;;;;13.07;2.45;;;;;;;-146.27;92.17;81847.88;5028128;28;20033;-74
2023/08/13 06:10:19;;;;;;;15.32;2.42;;;;;;;-146.27;91.40;81753.47;5017899;28;20022;-75
2023/08/13 06:12:45;;;;;;;12.85;2.25;;;;;;;-146.27;91.57;81813.72;5014679;28;20083;-76
2023/08/13 06:15:10;;;;;;;11.95;2.53;;;;;;;-146.27;90.90;81749.47;5022654;28;20025;-75
2023/08/13 06:17:35;;;;;;;14.90;2.53;;;;;;;-146.27;91.55;81805.69;5030167;28;20378;-77
2023/08/13 06:20:01;;;;;;;12.95;2.40;;;;;;;-146.27;91.26;81761.50;5032513;28;20087;-76
2023/08/13 06:22:26;;;;;;;10.10;2.00;;;;;;;-146.27;91.19;81769.53;5024649;28;20036;-76
2023/08/13 06:24:52;;;;;;;13.98;2.83;;;;;;;-146.27;91.00;81769.53;5030890;28;20489;-76
2023/08/13 06:27:17;;;;;;;11.25;2.20;;;;;;;-146.27;90.75;81737.41;5030971;28;20029;-75
2023/08/13 06:29:43;;;;;;;10.10;2.00;;;;;;;-146.27;90.99;81719.31;5029015;28;20025;-75
2023/08/13 06:32:08;;;;;;;13.30;2.63;;;;;;;-146.27;90.77;81755.47;5030358;28;20116;-76
2023/08/13 06:34:34;;;;;;;12.27;2.33;;;;;;;-146.27;90.28;81719.31;5029539;28;20052;-75
2023/08/13 06:37:01;;;;;;;8.82;2.42;;;;;;;-146.27;90.10;81711.28;5030172;28;20069;-76
2023/08/13 06:39:26;;;;;;;12.75;2.67;;;;;;;-146.27;89.59;81667.09;5030071;28;20400;-76
2023/08/13 06:41:51;;;;;;;18.95;1.98;;;;;;;-146.27;89.49;81665.09;5015656;28;20049;-76
2023/08/13 06:44:20;;;;;;;10.00;2.25;;;;;;;-146.27;89.91;81639.00;5010480;28;20037;-76
2023/08/13 06:46:48;;;;;;;15.80;2.97;;;;;;;-146.27;88.91;81639.00;5021276;28;20026;-76
2023/08/13 06:49:14;;;;;;;9.90;2.40;;;;;;;-146.27;88.28;81651.03;5029210;28;20544;-75
2023/08/13 06:51:39;;;;;;;20.30;3.20;;;;;;;-146.27;88.30;81645.00;5029587;28;20113;-77
2023/08/13 06:54:06;;;;;;;14.10;2.95;;;;;;;-146.27;88.30;81695.22;5031544;28;20095;-76
2023/08/13 06:56:32;;;;;;;14.75;2.78;;;;;;;-146.27;88.20;81602.84;5030949;28;20025;-76
2023/08/13 06:58:58;;;;;;;7.50;2.40;;;;;;;-146.27;88.58;81649.03;5031378;28;20057;-75
2023/08/13 07:01:24;;;;;;;10.15;2.47;;;;;;;-146.27;88.32;81624.94;5028384;28;20060;-77
2023/08/13 07:03:49;;;;;;;9.10;2.65;;;;;;;-146.27;87.75;81677.16;5026803;28;20120;-77
2023/08/13 07:06:15;;;;;;;13.57;2.40;;;;;;;-146.27;87.42;81584.75;5027704;28;20069;-78
2023/08/13 07:08:40;;;;;;;7.55;2.10;;;;;;;-146.27;86.94;81624.94;5027739;28;20045;-78
2023/08/13 07:11:05;;;;;;;9.23;2.25;;;;;;;-146.27;86.36;81542.59;5026477;28;20116;-75
2023/08/13 07:13:31;;;;;;;12.82;3.03;;;;;;;-146.27;86.26;81592.78;5026344;28;20060;-77
2023/08/13 07:15:57;;;;;;;10.00;2.72;;;;;;;-146.27;85.89;81667.09;5042316;28;20025;-70
2023/08/13 07:18:22;;;;;;;6.95;2.20;;;;;;;-146.27;85.80;81570.69;5030815;28;20057;-69
2023/08/13 07:20:48;;;;;;;8.95;1.90;;;;;;;-146.27;86.08;81522.50;5030003;28;20075;-68
2023/08/13 07:23:13;;;;;;;9.23;2.53;;;;;;;-146.27;85.42;81500.41;5026577;28;20493;-69
2023/08/13 07:25:39;;;;;;;8.05;2.30;;;;;;;-146.27;85.07;81420.06;5030469;28;20021;-69
2023/08/13 07:28:07;;;;;;;11.43;2.40;;;;;;;-146.27;84.82;81446.19;5031774;28;20041;-70
2023/08/13 07:30:33;;;;;;;6.80;2.55;;;;;;;-146.27;84.37;81410.03;5028662;28;20116;-71
2023/08/13 07:32:58;;;;;;;5.18;2.10;;;;;;;-146.27;84.07;81412.03;5031218;28;20124;-69
2023/08/13 07:35:24;;;;;;;9.57;2.67;;;;;;;-146.27;83.82;81458.22;5030713;28;20480;-70
2023/08/13 07:37:49;;;;;;;11.10;2.13;;;;;;;-146.27;83.29;81359.81;5026986;28;20038;-69
2023/08/13 07:40:16;;;;;;;9.40;1.80;;;;;;;-146.27;82.93;81468.28;5028621;28;20114;-70
2023/08/13 07:42:41;;;;;;;8.13;1.60;;;;;;;-146.27;82.90;81436.16;5031185;28;20547;-69
2023/08/13 07:45:07;;;;;;;9.13;2.00;;;;;;;-146.27;82.22;81424.09;5028052;28;20025;-70
2023/08/13 07:47:33;;;;;;;4.55;1.75;;;;;;;-146.27;81.79;81492.38;5017313;28;20021;-69
2023/08/13 07:50:00;;;;;;;4.65;1.65;;;;;;;-146.27;81.90;81444.19;5016641;28;20029;-69
2023/08/13 07:52:26;;;;;;;4.25;1.67;;;;;;;-146.27;81.04;81480.31;5021015;28;20029;-68
2023/08/13 07:54:51;;;;;;;8.63;1.70;;;;;;;-146.27;80.97;81462.25;5025465;28;20549;-70
2023/08/13 07:57:16;;;;;;;8.40;1.60;;;;;;;-146.27;80.78;81440.16;5026130;28;20049;-68
2023/08/13 07:59:42;;;;;;;11.32;1.70;;;;;;;-146.27;81.03;81436.16;5021390;28;20056;-67
2023/08/13 08:02:08;;;;;;;6.75;1.88;;;;;;;-146.27;80.73;81343.75;5018763;28;20548;-70
2023/08/13 08:04:34;;;;;;;4.95;1.15;;;;;;;-146.27;80.81;81440.16;5021090;28;20104;-67
2023/08/13 08:06:59;;;;;;;9.63;1.85;;;;;;;-146.27;80.06;81391.97;5024978;28;20071;-68
2023/08/13 08:09:25;;;;;;;5.45;1.25;;;;;;;-146.27;80.47;81347.78;5024445;28;20029;-68
2023/08/13 08:11:50;;;;;;;6.68;1.42;;;;;;;-146.27;79.01;81351.78;5027439;28;20047;-67
2023/08/13 08:14:15;;;;;;;4.93;1.20;;;;;;;-146.27;79.50;81337.75;5018510;28;20152;-68
2023/08/13 08:16:41;;;;;;;5.68;1.40;;;;;;;-146.27;79.63;81265.44;5019687;28;20389;-67
2023/08/13 08:19:06;;;;;;;6.72;1.10;;;;;;;-146.27;79.33;81333.72;5029286;28;20116;-67
2023/08/13 08:21:32;;;;;;;4.20;1.20;;;;;;;-146.27;79.11;81289.53;5028503;28;20029;-68
2023/08/13 08:24:00;;;;;;;5.40;1.08;;;;;;;-146.27;78.03;81297.56;5025219;28;20029;-67
2023/08/13 08:26:26;;;;;;;6.22;1.20;;;;;;;-146.27;78.21;81203.19;5026083;28;20399;-67
2023/08/13 08:28:52;;;;;;;7.80;1.85;;;;;;;-146.27;77.91;81285.53;5028740;28;20104;-66
2023/08/13 08:31:17;;;;;;;2.63;0.80;;;;;;;-146.27;77.49;81271.47;5028245;28;20033;-67
2023/08/13 08:33:42;;;;;;;7.07;2.08;;;;;;;-146.27;76.93;81347.78;5028797;28;20060;-66
2023/08/13 08:36:08;;;;;;;4.85;1.10;;;;;;;-146.27;77.09;81247.38;5028457;28;20469;-67
2023/08/13 08:38:33;;;;;;;5.88;1.23;;;;;;;-146.27;77.56;81267.44;5027275;28;20029;-66
2023/08/13 08:40:59;;;;;;;4.47;1.20;;;;;;;-146.27;77.02;81291.53;5032499;28;20465;-67
2023/08/13 08:43:30;;;;;;;4.05;1.05;;;;;;;-146.27;76.79;81299.59;5032826;28;20029;-67
2023/08/13 08:46:00;;;;;;;4.07;1.38;;;;;;;-146.27;76.72;81367.88;5028385;28;20108;-66
2023/08/13 08:48:32;;;;;;;3.70;1.23;;;;;;;-146.27;76.51;81277.50;5025532;28;20025;-71
2023/08/13 08:50:57;;;;;;;4.43;1.00;;;;;;;-146.27;76.86;81291.53;5031040;28;20032;-73
2023/08/13 08:53:25;;;;;;;6.88;1.00;;;;;;;-146.27;76.96;81311.63;5032945;28;20112;-69
2023/08/13 08:55:50;;;;;;;5.75;1.00;;;;;;;-146.27;77.37;81279.50;5029609;28;20017;-66
2023/08/13 08:58:16;;;;;;;2.67;1.00;;;;;;;-146.27;77.24;81281.50;5025676;28;20044;-68
2023/08/13 09:00:41;;;;;;;7.25;1.30;;;;;;;-146.27;77.07;81269.47;5027695;28;20040;-66
2023/08/13 09:03:07;;;;;;;3.40;1.10;;;;;;;-146.27;77.29;81271.47;5032245;28;20041;-68
2023/08/13 09:05:33;;;;;;;9.27;1.35;;;;;;;-146.27;77.64;81283.50;5027158;28;20609;-66
2023/08/13 09:07:58;;;;;;;5.90;1.20;;;;;;;-146.27;77.59;81229.28;5026573;28;20377;-66
2023/08/13 09:10:23;;;;;;;5.25;1.23;;;;;;;-146.27;77.15;81319.66;5030705;28;20128;-68
2023/08/13 09:12:49;;;;;;;4.30;1.08;;;;;;;-146.27;77.00;81231.31;5030239;28;20489;-67
2023/08/13 09:15:15;;;;;;;5.18;1.25;;;;;;;-146.27;77.12;81345.78;5027352;28;20021;-68
2023/08/13 09:17:40;;;;;;;3.80;1.20;;;;;;;-146.27;77.26;81277.50;5030929;28;20033;-67
2023/08/13 09:20:17;;;;;;;6.13;1.30;;;;;;;-146.27;77.51;81219.25;5032467;28;20385;-67
2023/08/13 09:22:46;;;;;;;12.77;1.50;;;;;;;-146.27;77.08;81179.09;5024418;28;20474;-67
2023/08/13 09:25:13;;;;;;;2.72;1.20;;;;;;;-146.27;76.33;81163.03;5031211;28;20108;-67
2023/08/13 09:27:39;;;;;;;5.78;1.23;;;;;;;-146.27;75.75;81171.06;5021019;28;20709;-67
2023/08/13 09:30:10;;;;;;;4.82;1.60;;;;;;;-146.27;76.33;81146.97;5022210;28;20378;-69
2023/08/13 09:32:35;;;;;;;5.70;1.27;;;;;;;-146.27;76.44;81122.84;5023907;28;20034;-69
2023/08/13 09:35:03;;;;;;;8.30;1.55;;;;;;;-146.27;76.24;81102.78;5029655;28;20033;-68
2023/08/13 09:37:29;;;;;;;3.72;0.90;;;;;;;-146.27;74.47;81036.50;5028105;28;20548;-66
2023/08/13 09:39:55;;;;;;;4.07;1.05;;;;;;;-146.27;74.85;80901.97;5024436;28;21703;-73
2023/08/13 09:42:23;;;;;;;5.47;1.17;;;;;;;-146.27;74.52;80910.00;5027128;28;20036;-73
2023/08/13 09:44:51;;;;;;;3.65;1.02;;;;;;;-146.27;72.81;80950.16;5027292;28;20533;-68
2023/08/13 09:47:23;;;;;;;4.13;1.08;;;;;;;-146.27;72.35;80901.97;5028836;28;20026;-68
2023/08/13 09:49:50;;;;;;;4.22;1.15;;;;;;;-146.27;71.52;80910.00;5024709;28;20029;-68
2023/08/13 09:52:22;;;;;;;6.15;1.10;;;;;;;-146.27;71.46;80867.81;5023942;28;20392;-69
2023/08/13 09:54:50;;;;;;;7.93;0.98;;;;;;;-146.27;71.11;80869.84;5028205;28;21568;-70
2023/08/13 09:57:17;;;;;;;7.70;1.30;;;;;;;-146.27;72.38;80922.03;5027520;28;20029;-70
2023/08/13 09:59:44;;;;;;;3.03;1.15;;;;;;;-146.27;72.79;80869.84;5017564;28;20029;-70
2023/08/13 10:02:12;;;;;;;4.45;1.00;;;;;;;-146.27;71.95;80918.03;5023400;28;20044;-70
2023/08/13 10:04:38;;;;;;;7.60;1.10;;;;;;;-146.27;71.36;80897.94;5021631;28;20031;-69
2023/08/13 10:07:05;;;;;;;4.00;1.10;;;;;;;-146.27;73.15;80930.06;5023712;28;20038;-68
2023/08/13 10:09:31;;;;;;;4.63;0.90;;;;;;;-146.27;70.72;80934.09;5027036;28;20038;-68
2023/08/13 10:11:57;;;;;;;3.38;0.88;;;;;;;-146.27;70.35;80901.97;5021410;28;20053;-69
2023/08/13 10:14:23;;;;;;;2.97;0.70;;;;;;;-146.27;70.30;80887.91;5021585;28;20063;-67
2023/08/13 10:16:49;;;;;;;2.67;0.82;;;;;;;-146.27;71.08;81008.41;5030167;28;20100;-72
2023/08/13 10:19:17;;;;;;;4.88;0.70;;;;;;;-146.27;72.16;81014.41;5027061;28;20025;-72
2023/08/13 10:21:42;;;;;;;1.98;1.08;;;;;;;-146.27;71.91;80962.22;5027242;28;20061;-72
2023/08/13 10:24:12;;;;;;;2.67;1.13;;;;;;;-146.27;72.06;81054.56;5029086;28;20429;-72
2023/08/13 10:26:41;;;;;;;2.65;1.00;;;;;;;-146.27;72.05;80976.25;5025585;28;20081;-72
2023/08/13 10:29:17;;;;;;;6.22;1.13;;;;;;;-146.27;72.85;80918.03;5021224;28;20478;-73
2023/08/13 10:32:12;;;;;;;5.25;0.85;;;;;;;-146.27;71.43;80992.31;5027151;28;20531;-70
2023/08/13 10:34:52;;;;;;;4.22;0.90;;;;;;;-146.27;71.43;80978.28;5015651;28;20030;-73
2023/08/13 10:37:19;;;;;;;3.53;0.70;;;;;;;-146.27;71.28;80938.09;5024375;28;20280;-73
2023/08/13 10:39:46;;;;;;;2.47;0.68;;;;;;;-146.27;71.40;80938.09;5022112;28;20037;-71
2023/08/13 10:42:27;;;;;;;6.00;0.88;;;;;;;-146.27;71.44;80946.13;5025986;28;20449;-72
2023/08/13 10:45:00;;;;;;;3.13;1.10;;;;;;;-146.27;71.87;80867.81;5027301;28;20025;-72
2023/08/13 10:47:43;;;;;;;5.40;1.08;;;;;;;-146.27;70.70;80869.84;5025751;28;20025;-71
2023/08/13 10:50:22;;;;;;;3.83;1.20;;;;;;;-146.27;70.29;80823.66;5015303;28;20026;-74
2023/08/13 10:52:54;;;;;;;5.30;1.00;;;;;;;-146.27;70.52;80817.63;5016893;28;20025;-73
2023/08/13 10:55:24;;;;;;;2.92;0.82;;;;;;;-146.27;69.75;80857.78;5019369;28;20021;-71
2023/08/13 10:57:51;;;;;;;2.63;1.00;;;;;;;-146.27;69.99;80795.53;5018535;28;20029;-72
2023/08/13 11:00:17;;;;;;;2.78;0.80;;;;;;;-146.27;69.79;80855.78;5022728;28;20034;-71
2023/08/13 11:02:50;;;;;;;2.80;0.98;;;;;;;-146.27;70.38;80855.78;5026699;28;20029;-71
2023/08/13 11:05:15;;;;;;;6.40;1.15;;;;;;;-146.27;70.33;80817.63;5028004;28;20050;-70
2023/08/13 11:07:42;;;;;;;3.60;0.90;;;;;;;-146.27;70.61;80867.81;5027532;28;20037;-71
2023/08/13 11:10:17;;;;;;;6.15;0.88;;;;;;;-146.27;70.41;80675.06;5026110;28;20369;-72